createdAt,value
2018-08-06T00:00:33.857Z,3.00
2018-08-06T00:03:02.923Z,2.95
2018-08-06T00:05:31.261Z,2.60
2018-08-06T00:07:58.827Z,2.83
2018-08-06T00:10:27.144Z,2.90
2018-08-06T00:12:56.087Z,2.72
2018-08-06T00:15:26.159Z,2.92
2018-08-06T00:17:53.709Z,2.70
2018-08-06T00:20:21.385Z,3.10
2018-08-06T00:22:50.064Z,2.90
2018-08-06T00:25:19.519Z,2.87
2018-08-06T00:27:47.857Z,3.10
2018-08-06T00:30:17.373Z,3.10
2018-08-06T00:32:45.724Z,3.10
2018-08-06T00:35:14.050Z,3.10
2018-08-06T00:37:41.958Z,3.52
2018-08-06T00:40:14.143Z,3.70
2018-08-06T00:42:43.913Z,3.90
2018-08-06T00:45:15.008Z,3.90
2018-08-06T00:47:44.048Z,3.50
2018-08-06T00:50:12.391Z,3.58
2018-08-06T00:52:40.325Z,4.15
2018-08-06T00:55:12.489Z,3.95
2018-08-06T00:57:40.787Z,4.37
2018-08-06T01:00:13.098Z,5.28
2018-08-06T01:02:50.385Z,4.72
2018-08-06T01:05:18.739Z,4.65
2018-08-06T01:07:46.488Z,4.30
2018-08-06T01:10:20.295Z,3.95
2018-08-06T01:12:49.232Z,4.35
2018-08-06T01:15:18.139Z,3.50
2018-08-06T01:17:47.014Z,3.67
2018-08-06T01:20:15.595Z,3.33
2018-08-06T01:22:45.067Z,3.15
2018-08-06T01:25:14.112Z,3.50
2018-08-06T01:27:41.892Z,3.42
2018-08-06T01:30:11.988Z,3.50
2018-08-06T01:32:40.518Z,3.80
2018-08-06T01:35:10.517Z,4.10
2018-08-06T01:37:39.374Z,4.10
2018-08-06T01:40:09.753Z,3.95
2018-08-06T01:42:38.209Z,4.12
2018-08-06T01:45:06.807Z,3.52
2018-08-06T01:47:35.111Z,4.10
2018-08-06T01:50:04.187Z,3.70
2018-08-06T01:52:32.532Z,3.85
2018-08-06T01:55:01.549Z,3.90
2018-08-06T01:57:29.401Z,4.08
2018-08-06T01:59:58.111Z,3.70
2018-08-06T02:02:25.678Z,3.30
2018-08-06T02:04:54.161Z,3.65
2018-08-06T02:07:22.038Z,3.67
2018-08-06T02:09:50.755Z,3.62
2018-08-06T02:12:18.983Z,3.40
2018-08-06T02:14:49.028Z,3.63
2018-08-06T02:17:17.396Z,3.37
2018-08-06T02:19:45.987Z,3.42
2018-08-06T02:22:14.292Z,3.62
2018-08-06T02:24:43.010Z,3.75
2018-08-06T02:27:10.582Z,3.80
2018-08-06T02:29:38.323Z,3.80
2018-08-06T02:32:07.183Z,3.67
2018-08-06T02:34:36.278Z,3.77
2018-08-06T02:37:03.987Z,3.87
2018-08-06T02:39:33.192Z,3.62
2018-08-06T02:42:01.007Z,3.70
2018-08-06T02:44:30.109Z,3.90
2018-08-06T02:46:57.598Z,4.00
2018-08-06T02:49:25.679Z,4.10
2018-08-06T02:51:55.110Z,3.98
2018-08-06T02:54:22.633Z,3.67
2018-08-06T02:56:51.797Z,3.80
2018-08-06T02:59:20.677Z,3.77
2018-08-06T03:01:49.321Z,4.70
2018-08-06T03:04:17.200Z,4.60
2018-08-06T03:06:45.642Z,4.53
2018-08-06T03:09:13.964Z,5.10
2018-08-06T03:11:42.029Z,4.63
2018-08-06T03:14:10.557Z,4.97
2018-08-06T03:16:39.493Z,4.62
2018-08-06T03:19:07.441Z,4.83
2018-08-06T03:21:35.114Z,4.78
2018-08-06T03:24:02.880Z,4.60
2018-08-06T03:26:30.817Z,4.60
2018-08-06T03:28:58.715Z,4.22
2018-08-06T03:31:28.735Z,3.95
2018-08-06T03:33:56.792Z,4.20
2018-08-06T03:36:24.332Z,4.45
2018-08-06T03:38:52.465Z,4.08
2018-08-06T03:41:21.508Z,4.40
2018-08-06T03:43:49.972Z,4.28
2018-08-06T03:46:18.299Z,4.30
2018-08-06T03:48:47.745Z,4.30
2018-08-06T03:51:15.690Z,4.25
2018-08-06T03:53:43.765Z,4.53
2018-08-06T03:56:11.945Z,4.33
2018-08-06T03:58:40.808Z,4.20
2018-08-06T04:01:13.970Z,4.30
2018-08-06T04:03:44.181Z,5.07
2018-08-06T04:06:12.214Z,4.55
2018-08-06T04:08:39.838Z,6.30
2018-08-06T04:11:09.888Z,8.98
2018-08-06T04:13:38.766Z,8.38
2018-08-06T04:16:06.791Z,7.08
2018-08-06T04:18:36.725Z,6.00
2018-08-06T04:21:05.715Z,6.67
2018-08-06T04:23:34.435Z,6.80
2018-08-06T04:26:02.064Z,5.45
2018-08-06T04:28:30.934Z,5.47
2018-08-06T04:30:59.338Z,4.90
2018-08-06T04:33:27.821Z,5.30
2018-08-06T04:35:57.635Z,5.62
2018-08-06T04:38:25.382Z,5.58
2018-08-06T04:40:52.863Z,4.80
2018-08-06T04:43:22.745Z,4.80
2018-08-06T04:45:52.630Z,4.60
2018-08-06T04:48:20.183Z,4.50
2018-08-06T04:50:49.274Z,4.70
2018-08-06T04:53:17.558Z,4.30
2018-08-06T04:55:45.095Z,4.35
2018-08-06T04:58:13.705Z,4.30
2018-08-06T05:00:42.171Z,4.58
2018-08-06T05:03:09.874Z,4.55
2018-08-06T05:05:37.383Z,4.40
2018-08-06T05:08:06.193Z,4.20
2018-08-06T05:10:34.916Z,4.72
2018-08-06T05:13:02.431Z,5.33
2018-08-06T05:15:32.041Z,5.33
2018-08-06T05:18:03.829Z,5.33
2018-08-06T05:20:32.452Z,5.15
2018-08-06T05:23:00.775Z,4.65
2018-08-06T05:25:28.449Z,5.60
2018-08-06T05:27:57.056Z,5.55
2018-08-06T05:30:25.189Z,5.50
2018-08-06T05:32:53.029Z,5.67
2018-08-06T05:35:21.040Z,5.70
2018-08-06T05:37:49.712Z,5.25
2018-08-06T05:40:18.772Z,5.10
2018-08-06T05:42:47.386Z,5.10
2018-08-06T05:45:15.934Z,5.40
2018-08-06T05:47:44.465Z,5.50
2018-08-06T05:50:14.237Z,5.13
2018-08-06T05:52:50.244Z,5.25
2018-08-06T05:55:18.901Z,5.37
2018-08-06T05:57:47.406Z,4.60
2018-08-06T06:00:17.714Z,4.25
2018-08-06T06:02:46.761Z,4.08
2018-08-06T06:05:15.379Z,4.45
2018-08-06T06:07:43.383Z,4.72
2018-08-06T06:10:13.424Z,4.22
2018-08-06T06:12:41.403Z,4.35
2018-08-06T06:15:13.252Z,4.85
2018-08-06T06:17:41.714Z,4.92
2018-08-06T06:20:11.250Z,4.80
2018-08-06T06:22:39.919Z,4.83
2018-08-06T06:25:10.873Z,4.57
2018-08-06T06:27:39.599Z,4.12
2018-08-06T06:30:10.191Z,3.60
2018-08-06T06:32:39.445Z,3.60
2018-08-06T06:35:14.104Z,3.30
2018-08-06T06:37:42.431Z,3.80
2018-08-06T06:40:13.164Z,3.65
2018-08-06T06:42:41.997Z,3.40
2018-08-06T06:45:10.925Z,3.60
2018-08-06T06:47:38.745Z,3.03
2018-08-06T06:50:10.088Z,2.95
2018-08-06T06:52:38.526Z,2.80
2018-08-06T06:55:10.460Z,2.87
2018-08-06T06:57:38.784Z,3.00
2018-08-06T07:00:08.651Z,3.22
2018-08-06T07:02:37.008Z,2.92
2018-08-06T07:05:05.449Z,3.07
2018-08-06T07:07:32.952Z,2.80
2018-08-06T07:10:01.325Z,2.43
2018-08-06T07:12:29.744Z,2.57
2018-08-06T07:14:58.391Z,2.90
2018-08-06T07:17:25.856Z,2.87
2018-08-06T07:19:53.515Z,3.00
2018-08-06T07:22:20.874Z,2.77
2018-08-06T07:24:49.882Z,2.63
2018-08-06T07:27:18.745Z,2.70
2018-08-06T07:29:46.702Z,2.70
2018-08-06T07:32:15.034Z,2.80
2018-08-06T07:34:43.799Z,2.40
2018-08-06T07:37:14.340Z,2.23
2018-08-06T07:39:42.624Z,2.37
2018-08-06T07:42:10.841Z,10.33
2018-08-06T07:44:38.656Z,2.50
2018-08-06T07:47:08.227Z,2.73
2018-08-06T07:49:36.505Z,2.87
2018-08-06T07:52:04.252Z,2.80
2018-08-06T07:54:32.122Z,2.73
2018-08-06T07:56:59.623Z,2.97
2018-08-06T07:59:28.168Z,2.17
2018-08-06T08:01:57.467Z,2.30
2018-08-06T08:04:27.300Z,2.57
2018-08-06T08:06:56.765Z,2.30
2018-08-06T08:09:25.673Z,3.03
2018-08-06T08:11:54.009Z,2.27
2018-08-06T08:14:22.269Z,2.40
2018-08-06T08:16:50.022Z,2.67
2018-08-06T08:19:18.627Z,2.57
2018-08-06T08:21:46.181Z,2.30
2018-08-06T08:24:14.631Z,2.10
2018-08-06T08:26:42.181Z,1.87
2018-08-06T08:29:09.685Z,2.30
2018-08-06T08:31:40.133Z,2.27
2018-08-06T08:34:09.669Z,1.87
2018-08-06T08:36:37.099Z,2.30
2018-08-06T08:39:08.004Z,2.10
2018-08-06T08:41:35.673Z,1.80
2018-08-06T08:44:03.421Z,2.30
2018-08-06T08:46:32.123Z,2.20
2018-08-06T08:49:01.225Z,1.70
2018-08-06T08:51:29.345Z,1.82
2018-08-06T08:53:57.539Z,2.00
2018-08-06T08:56:26.734Z,2.20
2018-08-06T08:58:54.672Z,1.70
2018-08-06T09:01:22.052Z,1.92
2018-08-06T09:03:49.796Z,2.10
2018-08-06T09:06:21.208Z,2.27
2018-08-06T09:08:51.086Z,2.00
2018-08-06T09:11:19.503Z,1.80
2018-08-06T09:13:48.191Z,2.17
2018-08-06T09:16:16.547Z,1.90
2018-08-06T09:18:45.681Z,1.70
2018-08-06T09:21:13.469Z,2.00
2018-08-06T09:23:42.183Z,2.50
2018-08-06T09:26:11.703Z,1.98
2018-08-06T09:28:39.487Z,1.80
2018-08-06T09:31:08.366Z,2.02
2018-08-06T09:33:37.508Z,2.02
2018-08-06T09:36:06.608Z,1.70
2018-08-06T09:38:36.199Z,1.57
2018-08-06T09:41:06.517Z,2.20
2018-08-06T09:43:34.882Z,2.00
2018-08-06T09:46:03.282Z,1.80
2018-08-06T09:48:31.400Z,2.10
2018-08-06T09:50:59.478Z,2.30
2018-08-06T09:53:28.563Z,2.10
2018-08-06T09:55:56.634Z,1.92
2018-08-06T09:58:25.952Z,2.05
2018-08-06T10:00:59.174Z,1.90
2018-08-06T10:03:29.359Z,1.80
2018-08-06T10:05:57.889Z,2.08
2018-08-06T10:08:26.445Z,1.80
2018-08-06T10:10:57.215Z,1.92
2018-08-06T10:13:26.047Z,1.85
2018-08-06T10:15:54.224Z,2.00
2018-08-06T10:18:22.670Z,2.08
2018-08-06T10:20:50.181Z,2.10
2018-08-06T10:23:18.172Z,1.90
2018-08-06T10:25:47.110Z,1.70
2018-08-06T10:28:17.905Z,1.80
2018-08-06T10:30:46.726Z,1.80
2018-08-06T10:33:15.644Z,1.60
2018-08-06T10:35:47.332Z,2.08
2018-08-06T10:38:16.611Z,2.20
2018-08-06T10:40:45.093Z,2.15
2018-08-06T10:43:13.295Z,1.80
2018-08-06T10:45:41.742Z,1.65
2018-08-06T10:48:09.725Z,1.77
2018-08-06T10:50:38.243Z,1.70
2018-08-06T10:53:07.819Z,1.70
2018-08-06T10:55:35.862Z,1.70
2018-08-06T10:58:04.532Z,1.80
2018-08-06T11:00:32.191Z,1.80
2018-08-06T11:03:00.435Z,1.80
2018-08-06T11:05:28.849Z,1.70
2018-08-06T11:07:57.710Z,1.80
2018-08-06T11:10:26.058Z,1.80
2018-08-06T11:12:54.803Z,2.05
2018-08-06T11:15:25.186Z,2.15
2018-08-06T11:17:54.546Z,1.70
2018-08-06T11:20:23.638Z,1.72
2018-08-06T11:22:53.024Z,1.60
2018-08-06T11:25:23.138Z,1.82
2018-08-06T11:27:52.161Z,2.00
2018-08-06T11:30:23.390Z,1.95
2018-08-06T11:32:54.387Z,1.82
2018-08-06T11:35:22.413Z,1.92
2018-08-06T11:37:50.209Z,1.50
2018-08-06T11:40:18.588Z,1.90
2018-08-06T11:42:47.081Z,1.87
2018-08-06T11:45:18.257Z,1.65
2018-08-06T11:47:47.218Z,1.80
2018-08-06T11:50:15.466Z,1.98
2018-08-06T11:52:45.094Z,1.80
2018-08-06T11:55:13.239Z,1.95
2018-08-06T11:57:42.754Z,2.47
2018-08-06T12:00:21.736Z,3.08
2018-08-06T12:02:49.363Z,1.80
2018-08-06T12:05:18.089Z,2.20
2018-08-06T12:07:49.307Z,2.05
2018-08-06T12:10:19.435Z,1.90
2018-08-06T12:12:48.251Z,1.82
2018-08-06T12:15:16.626Z,1.90
2018-08-06T12:17:44.876Z,1.50
2018-08-06T12:20:15.267Z,1.72
2018-08-06T12:22:44.094Z,1.67
2018-08-06T12:25:12.784Z,1.90
2018-08-06T12:27:41.645Z,2.00
2018-08-06T12:30:15.165Z,1.70
2018-08-06T12:32:44.773Z,1.70
2018-08-06T12:35:13.387Z,2.25
2018-08-06T12:37:42.550Z,1.50
2018-08-06T12:40:15.538Z,1.60
2018-08-06T12:42:43.851Z,1.62
2018-08-06T12:45:12.922Z,1.32
2018-08-06T12:47:44.731Z,1.70
2018-08-06T12:50:14.694Z,2.02
2018-08-06T12:52:44.807Z,1.82
2018-08-06T12:55:14.682Z,1.77
2018-08-06T12:57:45.440Z,1.70
2018-08-06T13:00:24.439Z,1.77
2018-08-06T13:02:52.760Z,1.80
2018-08-06T13:05:22.858Z,1.87
2018-08-06T13:07:51.689Z,1.70
2018-08-06T13:10:20.671Z,2.00
2018-08-06T13:12:50.280Z,1.80
2018-08-06T13:15:20.225Z,1.62
2018-08-06T13:17:48.261Z,1.85
2018-08-06T13:20:17.137Z,1.90
2018-08-06T13:22:45.944Z,1.80
2018-08-06T13:25:14.184Z,1.90
2018-08-06T13:27:46.191Z,1.90
2018-08-06T13:30:16.450Z,1.47
2018-08-06T13:32:45.376Z,1.85
2018-08-06T13:35:15.020Z,2.08
2018-08-06T13:37:45.150Z,1.92
2018-08-06T13:40:14.025Z,1.72
2018-08-06T13:42:42.128Z,1.57
2018-08-06T13:45:12.175Z,1.80
2018-08-06T13:47:41.672Z,1.90
2018-08-06T13:50:10.950Z,1.80
2018-08-06T13:52:40.172Z,1.90
2018-08-06T13:55:10.325Z,1.75
2018-08-06T13:57:38.987Z,1.77
2018-08-06T14:00:14.429Z,2.00
2018-08-06T14:02:42.816Z,2.00
2018-08-06T14:05:15.288Z,1.77
2018-08-06T14:07:44.007Z,1.55
2018-08-06T14:10:12.293Z,1.55
2018-08-06T14:12:40.381Z,1.77
2018-08-06T14:15:10.450Z,1.67
2018-08-06T14:17:38.932Z,1.62
2018-08-06T14:20:07.425Z,1.52
2018-08-06T14:22:36.163Z,1.80
2018-08-06T14:25:05.343Z,2.10
2018-08-06T14:27:33.242Z,1.87
2018-08-06T14:30:03.171Z,1.98
2018-08-06T14:32:31.315Z,1.82
2018-08-06T14:35:00.493Z,1.90
2018-08-06T14:37:29.686Z,1.80
2018-08-06T14:39:58.425Z,1.95
2018-08-06T14:42:27.256Z,1.85
2018-08-06T14:44:55.367Z,1.72
2018-08-06T14:47:24.856Z,2.10
2018-08-06T14:49:53.233Z,2.02
2018-08-06T14:52:22.556Z,1.70
2018-08-06T14:54:50.839Z,1.87
2018-08-06T14:57:18.743Z,1.90
2018-08-06T14:59:47.102Z,2.22
2018-08-06T15:02:14.719Z,1.77
2018-08-06T15:04:42.399Z,1.95
2018-08-06T15:07:11.095Z,1.90
2018-08-06T15:09:39.028Z,2.30
2018-08-06T15:12:07.602Z,1.70
2018-08-06T15:14:35.874Z,1.85
2018-08-06T15:17:04.022Z,2.22
2018-08-06T15:19:31.779Z,1.50
2018-08-06T15:22:00.061Z,1.80
2018-08-06T15:24:29.050Z,2.00
2018-08-06T15:26:58.456Z,1.60
2018-08-06T15:29:27.242Z,1.50
2018-08-06T15:31:57.227Z,2.00
2018-08-06T15:34:26.010Z,1.82
2018-08-06T15:36:54.924Z,1.80
2018-08-06T15:39:23.412Z,1.80
2018-08-06T15:41:52.676Z,1.60
2018-08-06T15:44:21.136Z,1.82
2018-08-06T15:46:49.141Z,1.92
2018-08-06T15:49:16.828Z,1.70
2018-08-06T15:51:44.738Z,1.55
2018-08-06T15:54:12.514Z,1.60
2018-08-06T15:56:42.203Z,1.70
2018-08-06T15:59:11.185Z,1.80
2018-08-06T16:01:40.794Z,1.80
2018-08-06T16:04:10.384Z,1.70
2018-08-06T16:06:39.432Z,1.60
2018-08-06T16:09:09.785Z,1.47
2018-08-06T16:11:37.844Z,1.57
2018-08-06T16:14:07.357Z,1.70
2018-08-06T16:16:36.757Z,1.95
2018-08-06T16:19:05.272Z,1.57
2018-08-06T16:21:33.834Z,1.60
2018-08-06T16:24:02.301Z,1.95
2018-08-06T16:26:39.736Z,2.17
2018-08-06T16:29:07.384Z,2.10
2018-08-06T16:31:35.975Z,1.62
2018-08-06T16:34:04.408Z,1.85
2018-08-06T16:36:32.810Z,1.70
2018-08-06T16:39:02.057Z,1.75
2018-08-06T16:41:30.421Z,1.37
2018-08-06T16:43:59.657Z,1.80
2018-08-06T16:46:28.097Z,2.00
2018-08-06T16:48:55.582Z,1.60
2018-08-06T16:51:23.517Z,1.77
2018-08-06T16:53:52.200Z,1.80
2018-08-06T16:56:20.593Z,1.77
2018-08-06T16:58:53.279Z,7.72
2018-08-06T17:01:22.331Z,3.08
2018-08-06T17:03:50.448Z,2.08
2018-08-06T17:06:20.223Z,1.87
2018-08-06T17:08:48.265Z,1.87
2018-08-06T17:11:17.067Z,1.95
2018-08-06T17:13:45.733Z,1.90
2018-08-06T17:16:14.899Z,2.35
2018-08-06T17:18:42.894Z,1.98
2018-08-06T17:21:10.922Z,1.75
2018-08-06T17:23:39.455Z,1.80
2018-08-06T17:26:07.282Z,1.85
2018-08-06T17:28:35.893Z,1.80
2018-08-06T17:31:04.453Z,2.10
2018-08-06T17:33:32.164Z,1.60
2018-08-06T17:36:00.869Z,1.65
2018-08-06T17:38:28.998Z,1.90
2018-08-06T17:40:59.645Z,2.00
2018-08-06T17:43:28.078Z,2.05
2018-08-06T17:45:57.098Z,2.10
2018-08-06T17:48:25.500Z,1.77
2018-08-06T17:50:53.237Z,1.60
2018-08-06T17:53:21.458Z,1.98
2018-08-06T17:55:51.147Z,2.65
2018-08-06T17:58:19.780Z,2.02
2018-08-06T18:00:47.832Z,2.10
2018-08-06T18:03:15.177Z,2.08
2018-08-06T18:05:43.915Z,2.42
2018-08-06T18:08:11.484Z,2.75
2018-08-06T18:10:40.462Z,3.90
2018-08-06T18:13:08.180Z,2.33
2018-08-06T18:15:39.011Z,2.10
2018-08-06T18:18:07.334Z,2.70
2018-08-06T18:20:40.811Z,2.40
2018-08-06T18:23:10.174Z,2.40
2018-08-06T18:25:38.761Z,3.08
2018-08-06T18:28:07.663Z,2.37
2018-08-06T18:30:35.361Z,2.90
2018-08-06T18:33:05.341Z,2.62
2018-08-06T18:35:34.999Z,2.70
2018-08-06T18:38:03.400Z,2.85
2018-08-06T18:40:31.852Z,2.67
2018-08-06T18:43:00.196Z,2.65
2018-08-06T18:45:28.480Z,2.90
2018-08-06T18:47:57.249Z,2.43
2018-08-06T18:50:24.737Z,2.63
2018-08-06T18:52:52.514Z,2.58
2018-08-06T18:55:21.128Z,2.47
2018-08-06T18:57:49.976Z,2.53
2018-08-06T19:00:21.418Z,2.83
2018-08-06T19:02:49.920Z,2.47
2018-08-06T19:05:19.013Z,2.80
2018-08-06T19:07:46.407Z,3.27
2018-08-06T19:10:14.025Z,3.30
2018-08-06T19:12:47.151Z,2.73
2018-08-06T19:15:15.696Z,3.83
2018-08-06T19:17:49.683Z,8.57
2018-08-06T19:20:17.329Z,3.50
2018-08-06T19:22:45.366Z,3.50
2018-08-06T19:25:20.686Z,3.50
2018-08-06T19:27:48.691Z,3.77
2018-08-06T19:30:17.470Z,6.40
2018-08-06T19:32:46.532Z,3.83
2018-08-06T19:35:14.346Z,4.10
2018-08-06T19:37:48.292Z,3.80
2018-08-06T19:40:16.812Z,3.67
2018-08-06T19:42:52.078Z,3.90
2018-08-06T19:45:20.574Z,6.07
2018-08-06T19:47:48.772Z,6.73
2018-08-06T19:50:23.569Z,3.90
2018-08-06T19:52:53.963Z,6.83
2018-08-06T19:55:28.165Z,3.57
2018-08-06T19:57:57.032Z,3.37
2018-08-06T20:00:24.475Z,3.40
2018-08-06T20:02:52.019Z,3.47
2018-08-06T20:05:19.677Z,3.70
2018-08-06T20:07:49.429Z,3.50
2018-08-06T20:10:17.503Z,3.77
2018-08-06T20:12:45.434Z,4.30
2018-08-06T20:15:15.556Z,4.23
2018-08-06T20:17:44.758Z,3.63
2018-08-06T20:20:14.221Z,4.60
2018-08-06T20:22:43.043Z,4.53
2018-08-06T20:25:16.083Z,4.50
2018-08-06T20:27:44.533Z,4.60
2018-08-06T20:30:14.217Z,4.07
2018-08-06T20:32:42.415Z,4.53
2018-08-06T20:35:13.748Z,4.93
2018-08-06T20:37:43.492Z,4.07
2018-08-06T20:40:12.262Z,3.97
2018-08-06T20:42:41.877Z,3.90
2018-08-06T20:45:13.867Z,4.30
2018-08-06T20:47:42.226Z,4.30
2018-08-06T20:50:12.003Z,4.30
2018-08-06T20:52:40.340Z,4.73
2018-08-06T20:55:10.529Z,4.20
2018-08-06T20:57:38.553Z,4.23
2018-08-06T21:00:08.563Z,4.27
2018-08-06T21:02:37.389Z,3.83
2018-08-06T21:05:07.178Z,3.83
2018-08-06T21:07:35.306Z,4.53
2018-08-06T21:10:04.321Z,4.27
2018-08-06T21:12:32.795Z,4.03
2018-08-06T21:15:02.031Z,4.47
2018-08-06T21:17:31.167Z,4.83
2018-08-06T21:20:02.181Z,6.20
2018-08-06T21:22:31.623Z,7.33
2018-08-06T21:24:59.997Z,6.37
2018-08-06T21:27:30.002Z,5.43
2018-08-06T21:29:59.460Z,4.80
2018-08-06T21:32:27.061Z,4.57
2018-08-06T21:34:54.590Z,7.77
2018-08-06T21:37:23.496Z,5.07
2018-08-06T21:39:51.834Z,5.10
2018-08-06T21:42:20.233Z,4.30
2018-08-06T21:44:48.199Z,4.60
2018-08-06T21:47:16.116Z,6.67
2018-08-06T21:49:43.478Z,5.03
2018-08-06T21:52:11.463Z,4.93
2018-08-06T21:54:39.758Z,5.37
2018-08-06T21:57:08.199Z,4.60
2018-08-06T21:59:39.314Z,4.40
2018-08-06T22:02:11.320Z,4.77
2018-08-06T22:04:39.486Z,4.50
2018-08-06T22:07:08.043Z,6.67
2018-08-06T22:09:37.074Z,4.83
2018-08-06T22:12:05.266Z,6.13
2018-08-06T22:14:33.276Z,4.60
2018-08-06T22:17:08.248Z,3.97
2018-08-06T22:19:37.180Z,5.30
2018-08-06T22:22:04.796Z,4.07
2018-08-06T22:24:33.096Z,5.93
2018-08-06T22:27:00.490Z,6.40
2018-08-06T22:29:29.454Z,5.33
2018-08-06T22:32:00.325Z,4.77
2018-08-06T22:34:28.463Z,5.60
2018-08-06T22:36:56.022Z,4.60
2018-08-06T22:39:23.455Z,4.50
2018-08-06T22:41:51.040Z,4.50
2018-08-06T22:44:19.490Z,4.00
2018-08-06T22:46:49.039Z,6.43
2018-08-06T22:49:17.090Z,5.80
2018-08-06T22:51:45.984Z,5.00
2018-08-06T22:54:15.714Z,5.77
2018-08-06T22:56:44.952Z,5.13
2018-08-06T22:59:15.524Z,4.47
2018-08-06T23:01:43.449Z,5.00
2018-08-06T23:04:11.266Z,4.07
2018-08-06T23:06:41.630Z,4.07
2018-08-06T23:09:12.465Z,4.30
2018-08-06T23:11:41.775Z,3.83
2018-08-06T23:14:10.859Z,4.27
2018-08-06T23:16:39.635Z,3.63
2018-08-06T23:19:07.570Z,3.67
2018-08-06T23:21:36.100Z,4.20
2018-08-06T23:24:06.187Z,4.23
2018-08-06T23:26:33.906Z,6.57
2018-08-06T23:29:01.513Z,5.70
2018-08-06T23:31:30.209Z,4.60
2018-08-06T23:33:58.051Z,4.70
2018-08-06T23:36:27.026Z,4.10
2018-08-06T23:38:55.679Z,4.20
2018-08-06T23:41:24.291Z,4.60
2018-08-06T23:43:53.621Z,3.80
2018-08-06T23:46:22.432Z,3.87
2018-08-06T23:48:51.363Z,4.00
2018-08-06T23:51:18.951Z,4.03
2018-08-06T23:53:47.241Z,4.10
2018-08-06T23:56:14.893Z,3.87
2018-08-06T23:58:42.473Z,4.70
